Time;durP1;ratioP1;P1;durP2;ratioP2;P2;SDS_P1;SDS_P2;PMS_P1;PMS_P2;Temp;Humidity;BMP_temperature;BMP_pressure;BME280_temperature;BME280_humidity;BME280_pressure;Samples;Min_cycle;Max_cycle;Signal;HPM_P1;HPM_P2
2021/03/18 00:01:40;;;;;;;12.88;10.70;;;;;;;3.73;65.04;94439.53;5110281;28;20313;-62
2021/03/18 00:04:12;;;;;;;13.80;10.80;;;;;;;3.82;64.98;94444.16;5110964;28;20202;-64
2021/03/18 00:06:39;;;;;;;12.65;10.43;;;;;;;3.71;65.04;94441.56;5109933;28;20234;-63
2021/03/18 00:09:13;;;;;;;13.40;11.23;;;;;;;3.81;64.67;94452.19;5110901;28;20183;-64
2021/03/18 00:11:42;;;;;;;12.27;10.18;;;;;;;3.79;64.12;94449.81;5110451;28;20224;-63
2021/03/18 00:14:14;;;;;;;13.00;10.40;;;;;;;3.91;63.63;94436.84;5111023;28;20630;-62
2021/03/18 00:16:41;;;;;;;12.85;10.30;;;;;;;3.92;63.60;94452.16;5109885;28;20266;-63
2021/03/18 00:19:08;;;;;;;12.50;10.07;;;;;;;3.96;63.31;94449.91;5111014;28;20174;-63
2021/03/18 00:21:34;;;;;;;14.18;10.68;;;;;;;3.81;63.74;94442.56;5110186;28;20214;-63
2021/03/18 00:24:01;;;;;;;13.25;10.40;;;;;;;3.61;63.78;94447.28;5110972;28;20200;-66
2021/03/18 00:26:30;;;;;;;13.13;10.43;;;;;;;3.88;62.56;94447.66;5110171;28;20285;-62
2021/03/18 00:29:01;;;;;;;15.63;10.90;;;;;;;3.79;62.95;94446.44;5110171;28;20623;-64
2021/03/18 00:31:30;;;;;;;14.43;10.63;;;;;;;4.05;63.37;94443.41;5110385;28;20218;-63
2021/03/18 00:33:58;;;;;;;15.15;10.48;;;;;;;4.00;61.97;94445.84;5110341;28;20205;-63
2021/03/18 00:36:26;;;;;;;12.13;9.70;;;;;;;3.81;62.18;94444.41;5110119;28;20201;-63
2021/03/18 00:38:52;;;;;;;13.55;10.30;;;;;;;3.67;62.95;94443.00;5110288;28;20193;-65
2021/03/18 00:41:19;;;;;;;13.13;10.55;;;;;;;3.67;62.87;94445.59;5109954;28;20285;-63
2021/03/18 00:43:46;;;;;;;12.93;10.40;;;;;;;3.81;62.55;94432.22;5110790;28;20218;-65
2021/03/18 00:46:14;;;;;;;13.45;10.10;;;;;;;3.75;62.42;94450.47;5108757;28;20205;-65
2021/03/18 00:48:44;;;;;;;14.10;10.93;;;;;;;3.86;62.45;94447.09;5113912;28;20189;-65
2021/03/18 00:51:14;;;;;;;13.80;10.43;;;;;;;3.91;61.89;94437.63;5111519;28;20703;-65
2021/03/18 00:53:43;;;;;;;14.80;11.80;;;;;;;3.99;62.19;94439.09;5110657;28;20206;-66
2021/03/18 00:56:13;;;;;;;13.90;11.00;;;;;;;3.79;62.13;94428.28;5112404;28;20259;-64
2021/03/18 00:58:45;;;;;;;13.10;10.25;;;;;;;3.86;62.36;94449.69;5112975;28;20213;-63
2021/03/18 01:01:20;;;;;;;16.23;10.60;;;;;;;3.82;61.91;94435.59;5112583;28;20298;-64
2021/03/18 01:03:46;;;;;;;13.68;10.95;;;;;;;3.91;62.43;94436.84;5114244;28;20202;-62
2021/03/18 01:06:19;;;;;;;13.95;11.10;;;;;;;3.95;62.58;94449.13;5113436;28;20715;-63
2021/03/18 01:08:48;;;;;;;14.07;10.93;;;;;;;3.96;62.38;94447.31;5112613;28;20237;-65
2021/03/18 01:11:23;;;;;;;14.10;11.10;;;;;;;3.63;62.49;94431.53;5113608;28;20229;-65
2021/03/18 01:14:03;;;;;;;14.77;10.77;;;;;;;3.77;61.84;94438.09;5114061;28;20190;-64
2021/03/18 01:16:33;;;;;;;13.38;9.98;;;;;;;3.62;61.99;94442.91;5113602;28;20660;-63
2021/03/18 01:19:03;;;;;;;14.00;10.35;;;;;;;3.71;61.85;94439.75;5113450;28;20200;-65
2021/03/18 01:21:37;;;;;;;14.32;11.70;;;;;;;3.91;61.58;94447.22;5113900;28;20218;-64
2021/03/18 01:24:05;;;;;;;13.65;10.85;;;;;;;3.86;61.57;94444.50;5113583;28;20297;-65
2021/03/18 01:26:31;;;;;;;15.93;11.60;;;;;;;3.86;62.25;94442.72;5112992;28;20211;-65
2021/03/18 01:28:59;;;;;;;14.73;11.23;;;;;;;3.92;61.67;94438.44;5114088;28;20557;-64
2021/03/18 01:31:26;;;;;;;16.02;11.30;;;;;;;3.91;61.53;94452.38;5113616;28;20229;-63
2021/03/18 01:33:52;;;;;;;16.92;11.73;;;;;;;3.81;61.53;94444.41;5113623;28;20189;-63
2021/03/18 01:36:20;;;;;;;16.10;11.77;;;;;;;3.80;61.73;94450.56;5113288;28;20186;-63
2021/03/18 01:38:47;;;;;;;14.40;11.88;;;;;;;3.67;61.78;94446.41;5113591;28;20202;-64
2021/03/18 01:41:15;;;;;;;16.98;12.25;;;;;;;3.62;62.07;94454.06;5113670;28;21024;-64
2021/03/18 01:43:43;;;;;;;15.93;11.52;;;;;;;3.67;61.94;94435.25;5113423;28;20206;-64
2021/03/18 01:46:09;;;;;;;14.75;11.25;;;;;;;3.68;62.03;94453.19;5113131;28;20194;-64
2021/03/18 01:48:36;;;;;;;15.38;11.77;;;;;;;3.73;61.77;94452.50;5113886;28;20241;-63
2021/03/18 01:51:04;;;;;;;17.95;12.55;;;;;;;3.86;62.01;94447.91;5113947;28;20222;-63
2021/03/18 01:53:31;;;;;;;15.50;11.52;;;;;;;3.91;61.22;94450.59;5113489;28;20319;-62
2021/03/18 01:55:58;;;;;;;16.98;12.88;;;;;;;4.10;61.20;94456.47;5112824;28;20202;-64
2021/03/18 01:58:25;;;;;;;15.95;12.52;;;;;;;3.93;60.92;94452.97;5113143;28;20199;-65
2021/03/18 02:00:56;;;;;;;15.30;12.38;;;;;;;3.93;60.69;94456.34;5113053;28;20679;-64
2021/03/18 02:03:25;;;;;;;16.25;12.68;;;;;;;4.06;60.80;94461.31;5111561;28;20195;-62
2021/03/18 02:05:53;;;;;;;14.43;11.55;;;;;;;4.05;60.01;94461.53;5111618;28;20660;-62
2021/03/18 02:08:19;;;;;;;15.02;11.60;;;;;;;4.19;60.28;94455.09;5112997;28;20198;-64
2021/03/18 02:10:46;;;;;;;16.10;12.05;;;;;;;4.08;59.98;94450.72;5112842;28;20595;-64
2021/03/18 02:13:15;;;;;;;15.25;11.98;;;;;;;4.14;60.44;94467.97;5112667;28;20254;-63
2021/03/18 02:15:48;;;;;;;15.82;11.45;;;;;;;4.21;59.83;94473.81;5112881;28;20533;-64
2021/03/18 02:18:39;;;;;;;13.70;10.52;;;;;;;4.04;59.78;94465.13;5115070;28;20182;-61
2021/03/18 02:21:37;;;;;;;13.90;11.15;;;;;;;4.03;60.32;94476.53;5115084;28;20641;-64
2021/03/18 02:24:16;;;;;;;15.27;11.18;;;;;;;4.03;60.67;94477.31;5112065;28;20198;-63
2021/03/18 02:27:12;;;;;;;13.88;11.57;;;;;;;3.90;61.59;94484.53;5112325;28;20194;-64
2021/03/18 02:30:03;;;;;;;15.32;11.55;;;;;;;4.20;60.80;94477.41;5112159;28;20255;-65
2021/03/18 02:32:43;;;;;;;14.93;11.40;;;;;;;4.07;60.97;94481.03;5112632;28;20214;-65
2021/03/18 02:35:28;;;;;;;15.50;11.93;;;;;;;4.07;60.99;94478.44;5111412;28;20198;-64
2021/03/18 02:38:23;;;;;;;15.55;11.07;;;;;;;4.01;60.94;94483.75;5112227;28;20615;-63
2021/03/18 02:40:56;;;;;;;13.68;10.55;;;;;;;3.99;61.26;94480.59;5111915;28;20201;-62
2021/03/18 02:43:24;;;;;;;13.90;10.73;;;;;;;3.98;60.99;94481.56;5112141;28;20277;-65
2021/03/18 02:45:55;;;;;;;15.40;11.38;;;;;;;4.11;61.42;94484.75;5112242;28;20198;-63
2021/03/18 02:48:28;;;;;;;14.35;10.98;;;;;;;4.11;61.71;94484.75;5112230;28;20283;-65
2021/03/18 02:50:56;;;;;;;13.63;10.35;;;;;;;3.74;63.01;94492.94;5111576;28;20737;-63
2021/03/18 02:53:27;;;;;;;12.15;9.68;;;;;;;3.59;62.42;94485.59;5111727;28;20202;-62
2021/03/18 02:55:55;;;;;;;13.40;10.55;;;;;;;3.87;61.71;94477.16;5111632;28;20690;-64
2021/03/18 02:58:27;;;;;;;12.63;10.07;;;;;;;3.91;61.67;94480.91;5112099;28;20209;-62
2021/03/18 03:00:57;;;;;;;13.30;10.00;;;;;;;3.89;60.84;94482.91;5111480;28;20675;-64
2021/03/18 03:03:40;;;;;;;14.32;11.18;;;;;;;4.00;61.14;94477.75;5110538;28;20247;-62
2021/03/18 03:06:08;;;;;;;14.95;10.45;;;;;;;3.98;61.14;94484.16;5111596;28;20881;-64
2021/03/18 03:08:36;;;;;;;12.63;9.93;;;;;;;3.75;60.91;94478.97;5111757;28;20194;-65
2021/03/18 03:11:04;;;;;;;12.65;10.18;;;;;;;3.84;60.11;94478.44;5111474;28;20710;-63
2021/03/18 03:13:35;;;;;;;12.77;10.25;;;;;;;4.20;60.13;94474.06;5111946;28;20206;-65
2021/03/18 03:16:06;;;;;;;14.02;10.40;;;;;;;4.25;60.09;94472.38;5111703;28;20206;-65
2021/03/18 03:18:33;;;;;;;12.88;10.30;;;;;;;4.07;60.04;94480.22;5111829;28;20616;-64
2021/03/18 03:21:02;;;;;;;13.82;10.65;;;;;;;4.20;59.88;94482.59;5111114;28;20281;-64
2021/03/18 03:23:30;;;;;;;12.57;9.90;;;;;;;4.02;60.02;94472.34;5111472;27;20664;-63
2021/03/18 03:25:58;;;;;;;12.45;9.85;;;;;;;4.24;59.28;94483.72;5111315;28;20203;-65
2021/03/18 03:28:26;;;;;;;12.20;10.05;;;;;;;4.06;59.59;94478.66;5111466;28;20194;-63
2021/03/18 03:30:58;;;;;;;12.65;9.68;;;;;;;3.98;59.85;94484.16;5110990;28;20711;-67
2021/03/18 03:33:26;;;;;;;12.43;9.25;;;;;;;3.86;60.14;94491.94;5110829;28;20194;-64
2021/03/18 03:35:55;;;;;;;12.07;9.75;;;;;;;3.87;60.22;94492.72;5111303;28;20208;-66
2021/03/18 03:38:22;;;;;;;12.85;10.05;;;;;;;3.88;60.36;94510.66;5111577;28;20202;-63
2021/03/18 03:40:49;;;;;;;13.05;10.25;;;;;;;3.24;62.17;94495.06;5110601;28;20194;-64
2021/03/18 03:43:17;;;;;;;14.07;10.45;;;;;;;3.47;62.60;94496.91;5111527;28;20191;-65
2021/03/18 03:45:44;;;;;;;11.88;9.23;;;;;;;3.38;62.91;94503.41;5110353;28;20764;-63
2021/03/18 03:48:11;;;;;;;13.60;10.13;;;;;;;3.54;62.98;94508.00;5114897;28;20195;-63
2021/03/18 03:50:38;;;;;;;12.82;10.10;;;;;;;3.34;64.42;94507.47;5112245;28;20264;-65
2021/03/18 03:53:39;;;;;;;13.70;10.45;;;;;;;3.42;64.15;94504.56;5111499;28;20594;-63
2021/03/18 03:56:24;;;;;;;12.02;9.52;;;;;;;2.79;65.92;94510.13;5110867;28;20183;-63
2021/03/18 03:58:58;;;;;;;15.65;10.13;;;;;;;2.94;66.41;94505.38;5111406;28;20235;-63
2021/03/18 04:01:44;;;;;;;16.95;10.80;;;;;;;2.94;66.36;94507.97;5110709;28;20236;-63
2021/03/18 04:04:28;;;;;;;13.00;10.13;;;;;;;3.05;65.90;94509.84;5110599;28;20202;-63
2021/03/18 04:06:59;;;;;;;15.35;11.32;;;;;;;3.16;65.82;94494.59;5110900;28;20283;-64
2021/03/18 04:09:27;;;;;;;13.32;10.10;;;;;;;3.32;65.38;94509.50;5110530;28;20201;-63
2021/03/18 04:11:55;;;;;;;14.18;10.38;;;;;;;3.12;66.53;94519.31;5110760;28;20229;-66
2021/03/18 04:14:26;;;;;;;13.90;10.85;;;;;;;3.16;66.32;94505.72;5110674;28;20581;-66
2021/03/18 04:16:57;;;;;;;12.65;10.15;;;;;;;3.25;66.12;94519.16;5110626;28;20209;-63
2021/03/18 04:19:26;;;;;;;12.68;9.85;;;;;;;3.07;65.98;94518.16;5110412;28;20197;-66
2021/03/18 04:21:53;;;;;;;15.93;10.38;;;;;;;3.30;65.93;94516.69;5110814;28;20186;-62
2021/03/18 04:24:23;;;;;;;20.15;14.15;;;;;;;3.24;65.78;94530.50;5110283;28;20244;-65
2021/03/18 04:26:52;;;;;;;13.13;10.07;;;;;;;3.01;66.71;94518.25;5110888;28;20198;-65
2021/03/18 04:29:20;;;;;;;14.20;11.02;;;;;;;3.22;66.26;94524.75;5115956;28;20281;-65
2021/03/18 04:31:47;;;;;;;14.13;10.45;;;;;;;3.36;65.76;94510.66;5116884;28;20596;-65
2021/03/18 04:34:18;;;;;;;14.50;10.85;;;;;;;3.54;64.94;94523.53;5117053;28;20530;-64
2021/03/18 04:36:44;;;;;;;14.77;11.50;;;;;;;3.52;64.35;94518.56;5116892;28;20193;-63
2021/03/18 04:39:13;;;;;;;16.52;11.88;;;;;;;3.44;64.44;94523.25;5117399;27;20262;-65
2021/03/18 04:41:40;;;;;;;14.05;11.13;;;;;;;3.67;64.21;94529.31;5116682;27;20574;-65
2021/03/18 04:44:08;;;;;;;17.75;11.35;;;;;;;3.73;63.87;94536.19;5117221;27;20194;-64
2021/03/18 04:46:36;;;;;;;14.40;11.32;;;;;;;3.72;63.04;94532.00;5117139;27;20183;-63
2021/03/18 04:49:04;;;;;;;14.43;10.65;;;;;;;3.75;63.22;94535.97;5117369;27;20189;-64
2021/03/18 04:51:31;;;;;;;12.80;10.05;;;;;;;3.70;62.80;94528.09;5116644;28;20255;-65
2021/03/18 04:53:59;;;;;;;14.60;11.20;;;;;;;3.64;62.52;94531.56;5117322;28;20202;-64
2021/03/18 04:56:27;;;;;;;14.25;10.68;;;;;;;3.51;62.84;94540.28;5116733;28;20210;-63
2021/03/18 04:58:55;;;;;;;13.40;9.45;;;;;;;3.53;62.76;94543.47;5117110;28;20549;-67
2021/03/18 05:01:24;;;;;;;13.73;9.77;;;;;;;3.48;63.04;94545.13;5116560;28;20751;-64
2021/03/18 05:03:52;;;;;;;13.13;9.93;;;;;;;3.57;63.46;94546.41;5112784;28;20212;-63
2021/03/18 05:06:25;;;;;;;13.68;9.48;;;;;;;3.38;64.25;94556.00;5117120;27;20242;-64
2021/03/18 05:08:52;;;;;;;12.25;9.82;;;;;;;3.50;64.03;94562.03;5117417;27;20288;-66
2021/03/18 05:11:21;;;;;;;12.30;8.55;;;;;;;3.36;64.37;94552.06;5117719;28;20214;-63
2021/03/18 05:13:49;;;;;;;12.68;9.55;;;;;;;3.42;64.44;94567.50;5117111;28;20213;-63
2021/03/18 05:16:16;;;;;;;12.50;9.32;;;;;;;3.24;64.94;94564.97;5119010;28;20741;-64
2021/03/18 05:18:44;;;;;;;11.27;8.60;;;;;;;3.13;66.12;94560.50;5119329;28;20201;-64
2021/03/18 05:21:11;;;;;;;13.43;9.80;;;;;;;3.24;65.75;94571.94;5118651;27;20642;-65
2021/03/18 05:23:39;;;;;;;12.88;10.02;;;;;;;3.35;65.90;94566.00;5117203;27;20293;-64
2021/03/18 05:26:06;;;;;;;13.90;10.02;;;;;;;3.21;66.41;94565.41;5116998;27;20198;-63
2021/03/18 05:28:34;;;;;;;12.35;9.63;;;;;;;3.18;66.82;94575.38;5117205;27;20201;-64
2021/03/18 05:31:01;;;;;;;13.88;10.32;;;;;;;3.18;67.08;94580.56;5116862;28;20197;-65
2021/03/18 05:33:28;;;;;;;13.20;10.05;;;;;;;3.06;67.50;94568.38;5116540;27;20194;-64
2021/03/18 05:35:55;;;;;;;14.32;10.63;;;;;;;3.00;67.24;94579.56;5116795;28;20190;-62
2021/03/18 05:38:22;;;;;;;12.68;9.57;;;;;;;3.23;66.40;94578.13;5116889;28;20191;-64
2021/03/18 05:40:54;;;;;;;12.65;8.77;;;;;;;3.27;66.30;94579.25;5112373;28;20222;-63
2021/03/18 05:43:25;;;;;;;13.68;10.75;;;;;;;3.69;65.50;94579.09;5113851;28;20204;-66
2021/03/18 05:45:54;;;;;;;16.08;10.45;;;;;;;3.54;65.86;94586.47;5114066;28;20691;-65
2021/03/18 05:48:21;;;;;;;15.77;11.15;;;;;;;3.85;65.03;94593.25;5113397;28;20729;-63
2021/03/18 05:50:49;;;;;;;17.40;10.88;;;;;;;3.73;64.97;94595.00;5113327;28;20255;-65
2021/03/18 05:53:17;;;;;;;17.05;10.98;;;;;;;3.88;65.02;94603.16;5112811;27;20222;-67
2021/03/18 05:55:51;;;;;;;54.67;34.70;;;;;;;4.22;65.71;94597.25;5111158;27;20275;-66
2021/03/18 05:58:21;;;;;;;34.92;25.75;;;;;;;4.29;65.79;94595.34;5111017;28;20183;-65
2021/03/18 06:00:49;;;;;;;16.05;11.65;;;;;;;4.20;64.50;94599.28;5111392;28;20190;-65
2021/03/18 06:03:20;;;;;;;15.10;10.52;;;;;;;4.11;64.46;94598.81;5111966;28;20271;-65
2021/03/18 06:06:00;;;;;;;14.00;10.40;;;;;;;4.05;64.34;94593.75;5112987;28;20198;-66
2021/03/18 06:08:27;;;;;;;13.43;10.00;;;;;;;3.89;63.39;94595.16;5113055;28;20200;-63
2021/03/18 06:10:56;;;;;;;14.40;10.18;;;;;;;3.88;63.59;94605.75;5112941;28;20205;-64
2021/03/18 06:13:22;;;;;;;12.75;9.00;;;;;;;3.57;63.77;94605.97;5113008;28;20222;-64
2021/03/18 06:15:48;;;;;;;9.30;6.03;;;;;;;3.39;63.33;94609.41;5113135;28;20187;-64
2021/03/18 06:18:18;;;;;;;11.85;9.30;;;;;;;3.71;63.81;94617.75;5112588;28;20748;-62
2021/03/18 06:20:53;;;;;;;11.73;8.10;;;;;;;3.42;64.52;94613.34;5113126;28;20199;-65
2021/03/18 06:23:20;;;;;;;11.80;9.00;;;;;;;3.70;64.11;94621.34;5112692;28;20698;-62
2021/03/18 06:25:48;;;;;;;12.63;9.43;;;;;;;3.92;62.90;94614.69;5113077;28;20197;-64
2021/03/18 06:28:19;;;;;;;12.13;9.23;;;;;;;4.05;62.09;94615.25;5112956;28;20230;-64
2021/03/18 06:31:04;;;;;;;11.95;9.38;;;;;;;4.09;62.00;94625.97;5113123;28;20203;-63
2021/03/18 06:33:35;;;;;;;13.93;10.32;;;;;;;4.61;65.09;94620.00;5112941;28;20183;-65
2021/03/18 06:36:23;;;;;;;11.80;8.75;;;;;;;4.54;61.51;94608.94;5110189;28;20599;-63
2021/03/18 06:39:11;;;;;;;12.13;9.45;;;;;;;4.23;62.09;94632.56;5111948;28;20208;-64
2021/03/18 06:41:46;;;;;;;11.75;9.32;;;;;;;3.99;61.74;94630.91;5110932;28;20201;-62
2021/03/18 06:44:24;;;;;;;10.60;8.07;;;;;;;4.22;60.93;94636.16;5111339;28;20201;-64
2021/03/18 06:46:52;;;;;;;11.43;8.25;;;;;;;4.54;61.01;94623.69;5110964;28;20194;-65
2021/03/18 06:49:21;;;;;;;13.57;9.40;;;;;;;4.62;60.54;94621.56;5117372;28;20262;-65
2021/03/18 06:52:01;;;;;;;10.43;8.30;;;;;;;4.63;59.81;94625.75;5111636;28;20649;-66
2021/03/18 06:54:57;;;;;;;10.77;7.97;;;;;;;4.37;59.54;94633.94;5112030;28;20252;-64
2021/03/18 06:57:24;;;;;;;10.15;7.53;;;;;;;4.54;58.69;94644.47;5108140;28;20249;-63
2021/03/18 06:59:50;;;;;;;10.35;7.40;;;;;;;4.75;57.84;94631.72;5111700;28;20243;-63
2021/03/18 07:02:20;;;;;;;9.98;8.07;;;;;;;4.95;57.69;94626.97;5111771;28;20623;-63
2021/03/18 07:04:56;;;;;;;9.95;8.00;;;;;;;4.99;57.36;94622.91;5111880;28;20204;-64
2021/03/18 07:07:25;;;;;;;9.40;7.43;;;;;;;5.09;57.39;94623.13;5111833;28;20222;-66
2021/03/18 07:09:54;;;;;;;8.00;6.57;;;;;;;5.22;56.47;94631.69;5111547;28;20691;-67
2021/03/18 07:12:29;;;;;;;8.70;5.93;;;;;;;5.16;55.99;94623.78;5111900;28;20222;-64
2021/03/18 07:14:59;;;;;;;5.40;4.55;;;;;;;4.35;57.04;94645.53;5111313;28;20205;-63
2021/03/18 07:17:33;;;;;;;6.97;5.15;;;;;;;4.24;57.51;94639.31;5112179;28;20212;-65
2021/03/18 07:20:22;;;;;;;7.82;6.03;;;;;;;5.00;57.06;94634.88;5113589;28;20702;-65
2021/03/18 07:22:54;;;;;;;8.48;6.35;;;;;;;5.07;56.39;94630.34;5114176;28;20199;-62
2021/03/18 07:25:24;;;;;;;8.15;6.72;;;;;;;5.01;57.05;94627.88;5114003;28;20229;-65
2021/03/18 07:27:54;;;;;;;14.27;7.07;;;;;;;5.02;56.94;94632.84;5114666;28;20198;-62
2021/03/18 07:30:24;;;;;;;8.20;6.10;;;;;;;5.07;56.38;94625.16;5114351;28;20186;-64
2021/03/18 07:32:51;;;;;;;8.55;6.72;;;;;;;5.18;56.56;94638.34;5112120;28;20229;-64
2021/03/18 07:35:17;;;;;;;9.02;6.70;;;;;;;5.04;56.13;94630.81;5110855;28;20720;-64
2021/03/18 07:37:44;;;;;;;9.52;7.68;;;;;;;5.15;56.94;94606.63;5110880;28;20668;-67
2021/03/18 07:40:11;;;;;;;9.55;7.35;;;;;;;5.46;55.98;94630.59;5111915;28;20360;-65
2021/03/18 07:42:39;;;;;;;10.43;7.88;;;;;;;5.63;55.81;94644.47;5111421;28;20199;-63
2021/03/18 07:45:07;;;;;;;9.45;7.03;;;;;;;5.57;55.26;94632.38;5111033;28;20283;-66
2021/03/18 07:47:36;;;;;;;8.45;6.32;;;;;;;5.01;55.69;94623.47;5111086;28;20643;-63
2021/03/18 07:50:09;;;;;;;9.05;6.88;;;;;;;5.49;55.39;94638.72;5110767;28;20209;-65
2021/03/18 07:52:40;;;;;;;11.05;6.75;;;;;;;5.22;55.17;94647.28;5111307;28;20228;-66
2021/03/18 07:55:09;;;;;;;7.85;6.50;;;;;;;5.40;54.90;94654.94;5110864;28;20179;-65
2021/03/18 07:57:51;;;;;;;7.00;5.57;;;;;;;5.37;54.68;94639.78;5110656;28;20191;-65
2021/03/18 08:00:22;;;;;;;8.25;6.00;;;;;;;5.59;53.74;94648.53;5110725;28;20277;-64
2021/03/18 08:02:50;;;;;;;7.03;4.97;;;;;;;5.14;54.06;94648.41;5109812;28;20183;-66
2021/03/18 08:05:38;;;;;;;8.10;5.97;;;;;;;5.02;53.62;94617.25;5110895;28;20198;-64
2021/03/18 08:08:07;;;;;;;8.05;6.13;;;;;;;5.44;53.93;94645.66;5110412;28;20287;-64
2021/03/18 08:11:12;;;;;;;9.13;5.78;;;;;;;5.37;53.61;94655.38;5110058;28;20200;-63
2021/03/18 08:13:41;;;;;;;11.88;6.30;;;;;;;5.44;53.50;94656.06;5110930;28;20194;-65
2021/03/18 08:16:28;;;;;;;9.85;6.20;;;;;;;5.52;53.65;94647.88;5110025;28;20648;-64
2021/03/18 08:18:56;;;;;;;8.18;6.15;;;;;;;5.77;53.03;94630.19;5116211;28;20198;-66
2021/03/18 08:21:39;;;;;;;8.90;5.53;;;;;;;5.70;53.41;94650.31;5111663;28;20244;-66
2021/03/18 08:24:09;;;;;;;10.65;5.43;;;;;;;5.55;53.58;94647.41;5110847;28;20202;-65
2021/03/18 08:26:48;;;;;;;7.10;5.90;;;;;;;5.64;53.72;94644.22;5110071;28;20209;-65
2021/03/18 08:29:17;;;;;;;7.38;5.10;;;;;;;5.51;53.36;94661.91;5110588;28;20206;-65
2021/03/18 08:31:47;;;;;;;7.15;5.03;;;;;;;5.27;53.48;94661.16;5110256;28;20214;-64
2021/03/18 08:34:15;;;;;;;8.35;5.70;;;;;;;5.62;53.49;94654.06;5110693;28;20179;-64
2021/03/18 08:36:50;;;;;;;7.93;5.90;;;;;;;5.96;53.06;94649.81;5109917;28;20197;-62
2021/03/18 08:39:45;;;;;;;7.13;5.40;;;;;;;5.59;52.74;94667.53;5109598;28;20225;-64
2021/03/18 08:42:30;;;;;;;7.22;5.55;;;;;;;5.91;52.76;94660.13;5110719;28;20234;-62
2021/03/18 08:44:59;;;;;;;6.93;5.55;;;;;;;5.70;52.34;94658.13;5110041;28;20676;-67
2021/03/18 08:47:35;;;;;;;7.03;5.65;;;;;;;5.81;51.43;94665.09;5109874;28;20198;-67
2021/03/18 08:50:06;;;;;;;7.53;5.20;;;;;;;5.94;51.57;94655.25;5110453;28;20183;-64
2021/03/18 08:52:41;;;;;;;6.95;5.47;;;;;;;5.86;52.62;94658.22;5110529;28;20229;-66
2021/03/18 08:55:13;;;;;;;8.00;6.10;;;;;;;5.80;52.59;94660.94;5110089;28;20262;-65
2021/03/18 08:57:40;;;;;;;10.73;5.82;;;;;;;6.08;51.58;94663.56;5110156;28;20201;-64
2021/03/18 09:00:19;;;;;;;6.63;5.35;;;;;;;6.16;50.89;94663.19;5110045;28;20895;-63
2021/03/18 09:02:46;;;;;;;7.18;5.50;;;;;;;6.30;50.17;94656.66;5110563;28;20206;-66
2021/03/18 09:05:18;;;;;;;8.95;5.38;;;;;;;6.18;50.93;94653.34;5110293;28;20263;-64
2021/03/18 09:07:51;;;;;;;7.72;5.78;;;;;;;6.87;51.60;94657.31;5109946;28;20245;-65
2021/03/18 09:10:21;;;;;;;8.88;6.03;;;;;;;6.89;49.94;94650.88;5110177;28;20189;-64
2021/03/18 09:12:58;;;;;;;10.13;6.32;;;;;;;7.18;49.96;94659.34;5110136;28;20648;-62
2021/03/18 09:15:36;;;;;;;5.93;4.80;;;;;;;6.63;49.85;94666.31;5112516;28;20198;-64
2021/03/18 09:18:16;;;;;;;6.13;4.93;;;;;;;6.52;50.00;94659.34;5113691;28;20263;-64
2021/03/18 09:20:49;;;;;;;7.38;5.07;;;;;;;6.94;49.48;94653.53;5113910;28;20194;-64
2021/03/18 09:23:24;;;;;;;9.57;5.75;;;;;;;6.89;50.50;94656.06;5113972;28;20678;-66
2021/03/18 09:25:55;;;;;;;6.97;5.30;;;;;;;6.98;50.48;94653.84;5113375;28;20194;-65
2021/03/18 09:28:22;;;;;;;8.35;6.05;;;;;;;7.10;50.06;94660.53;5113757;28;20198;-63
2021/03/18 09:30:54;;;;;;;7.57;5.88;;;;;;;7.05;50.25;94655.25;5113781;28;20596;-66
2021/03/18 09:33:33;;;;;;;8.20;5.63;;;;;;;6.93;50.68;94666.81;5113726;28;20411;-63
2021/03/18 09:36:21;;;;;;;8.60;6.05;;;;;;;7.21;50.15;94668.50;5112961;28;20296;-66
2021/03/18 09:39:09;;;;;;;6.70;4.90;;;;;;;6.86;49.94;94666.19;5103628;28;20643;-64
2021/03/18 09:41:45;;;;;;;9.02;5.80;;;;;;;6.95;49.66;94665.50;5113307;28;20197;-65
2021/03/18 09:44:15;;;;;;;6.70;4.60;;;;;;;6.29;52.47;94675.91;5113609;28;20209;-63
2021/03/18 09:46:50;;;;;;;5.00;3.95;;;;;;;5.61;54.89;94694.09;5114222;28;20209;-66
2021/03/18 09:49:39;;;;;;;8.15;4.63;;;;;;;5.81;56.12;94696.28;5115832;28;20204;-63
2021/03/18 09:52:08;;;;;;;6.88;4.95;;;;;;;6.43;55.52;94695.41;5113369;28;20695;-63
2021/03/18 09:54:35;;;;;;;6.30;4.80;;;;;;;7.17;55.02;94694.25;5112989;28;20213;-63
2021/03/18 09:57:05;;;;;;;6.50;4.75;;;;;;;7.26;53.58;94699.84;5113480;28;20183;-66
2021/03/18 09:59:32;;;;;;;6.78;4.80;;;;;;;7.33;53.79;94697.84;5113087;28;20286;-65
2021/03/18 10:01:59;;;;;;;8.05;4.55;;;;;;;6.81;52.78;94705.13;5113101;28;20202;-64
2021/03/18 10:04:26;;;;;;;6.85;4.47;;;;;;;6.44;54.03;94702.16;5113065;28;20186;-64
2021/03/18 10:06:57;;;;;;;4.90;3.83;;;;;;;6.34;55.25;94689.00;5112934;28;20230;-64
2021/03/18 10:09:34;;;;;;;5.13;3.30;;;;;;;6.13;55.77;94703.44;5113046;28;20210;-65
2021/03/18 10:12:05;;;;;;;6.63;4.57;;;;;;;6.23;56.61;94702.84;5112896;28;20214;-63
2021/03/18 10:14:37;;;;;;;5.25;4.10;;;;;;;6.44;55.52;94714.41;5112550;28;20289;-64
2021/03/18 10:17:18;;;;;;;6.03;4.40;;;;;;;6.61;54.02;94710.81;5112874;28;20237;-64
2021/03/18 10:20:07;;;;;;;6.72;4.78;;;;;;;7.02;52.53;94707.03;5112206;28;20206;-66
2021/03/18 10:22:47;;;;;;;6.70;4.90;;;;;;;7.79;50.58;94705.25;5112577;28;20653;-64
2021/03/18 10:25:27;;;;;;;7.50;5.38;;;;;;;7.57;50.00;94704.44;5112587;28;20206;-62
2021/03/18 10:28:09;;;;;;;6.63;5.18;;;;;;;7.93;48.74;94706.47;5111942;28;20205;-65
2021/03/18 10:30:43;;;;;;;5.38;3.88;;;;;;;8.10;46.40;94720.25;5112324;28;20194;-63
2021/03/18 10:33:26;;;;;;;6.13;4.25;;;;;;;7.12;47.40;94710.59;5112863;28;20262;-64
2021/03/18 10:35:53;;;;;;;5.80;4.57;;;;;;;7.64;47.26;94720.69;5112018;28;20182;-63
2021/03/18 10:38:40;;;;;;;5.35;4.55;;;;;;;7.01;48.97;94721.88;5112461;28;20235;-65
2021/03/18 10:41:10;;;;;;;6.95;5.07;;;;;;;7.04;49.04;94720.63;5111856;28;20680;-65
2021/03/18 10:43:48;;;;;;;5.05;4.22;;;;;;;7.24;48.28;94714.94;5112145;28;20194;-65
2021/03/18 10:46:17;;;;;;;7.20;4.63;;;;;;;7.28;48.66;94713.44;5112322;28;20202;-67
2021/03/18 10:48:49;;;;;;;8.18;4.07;;;;;;;6.45;49.44;94716.78;5112037;28;20690;-63
2021/03/18 10:51:19;;;;;;;7.03;4.40;;;;;;;6.69;49.54;94723.44;5111952;28;20664;-62
2021/03/18 10:53:47;;;;;;;7.18;5.20;;;;;;;6.71;50.48;94715.41;5112370;28;20608;-63
2021/03/18 10:56:19;;;;;;;5.93;4.90;;;;;;;6.93;50.14;94709.25;5112443;28;20653;-65
2021/03/18 10:58:47;;;;;;;5.78;4.38;;;;;;;6.78;49.79;94722.03;5111923;28;20191;-64
2021/03/18 11:01:23;;;;;;;10.60;4.72;;;;;;;6.62;50.01;94719.41;5111936;28;20195;-64
2021/03/18 11:03:50;;;;;;;7.65;4.18;;;;;;;7.07;49.83;94720.94;5112000;28;21144;-63
2021/03/18 11:06:21;;;;;;;5.25;4.22;;;;;;;6.78;50.73;94714.22;5111416;28;20610;-64
2021/03/18 11:08:52;;;;;;;5.05;3.92;;;;;;;7.17;49.83;94715.88;5111961;28;20202;-65
2021/03/18 11:11:22;;;;;;;4.25;3.75;;;;;;;7.30;49.88;94716.59;5111660;28;20248;-64
2021/03/18 11:13:49;;;;;;;5.05;4.32;;;;;;;7.88;48.56;94709.00;5111705;28;20627;-64
2021/03/18 11:16:21;;;;;;;6.10;4.30;;;;;;;8.54;47.41;94700.88;5113579;28;20202;-63
2021/03/18 11:18:48;;;;;;;7.30;4.78;;;;;;;8.91;47.10;94701.72;5113929;28;20289;-65
2021/03/18 11:21:32;;;;;;;4.85;3.60;;;;;;;8.46;44.86;94709.16;5111543;27;20195;-63
2021/03/18 11:24:18;;;;;;;5.32;3.53;;;;;;;8.10;46.32;94710.56;5111358;28;20749;-64
2021/03/18 11:26:51;;;;;;;5.88;3.80;;;;;;;7.92;46.80;94703.06;5111354;28;20190;-63
2021/03/18 11:29:19;;;;;;;5.63;4.30;;;;;;;7.98;47.45;94701.28;5111292;28;20229;-63
2021/03/18 11:31:50;;;;;;;7.57;4.13;;;;;;;7.90;47.69;94709.56;5111044;28;20179;-63
2021/03/18 11:34:18;;;;;;;7.63;4.47;;;;;;;7.37;47.80;94709.38;5111207;28;20190;-64
2021/03/18 11:36:49;;;;;;;4.63;3.95;;;;;;;6.92;48.42;94702.47;5111599;28;20186;-63
2021/03/18 11:39:17;;;;;;;4.82;4.30;;;;;;;7.36;48.66;94718.22;5110656;28;20285;-64
2021/03/18 11:41:43;;;;;;;6.80;4.00;;;;;;;7.34;48.18;94715.06;5110823;27;20719;-63
2021/03/18 11:44:13;;;;;;;3.60;3.05;;;;;;;7.16;45.98;94706.50;5111297;28;20205;-65
2021/03/18 11:46:41;;;;;;;5.55;3.78;;;;;;;7.18;46.44;94709.66;5111293;28;20191;-62
2021/03/18 11:49:08;;;;;;;4.40;3.65;;;;;;;7.51;46.27;94705.41;5111143;28;20631;-63
2021/03/18 11:51:35;;;;;;;4.85;3.53;;;;;;;7.74;45.84;94699.94;5110726;28;20198;-62
2021/03/18 11:54:01;;;;;;;4.35;3.50;;;;;;;7.96;44.63;94711.19;5111111;28;20256;-63
2021/03/18 11:56:28;;;;;;;6.38;3.75;;;;;;;8.37;45.06;94709.84;5110865;28;20186;-64